Time;durP1;ratioP1;P1;durP2;ratioP2;P2;SDS_P1;SDS_P2;PMS_P1;PMS_P2;Temp;Humidity;BMP_temperature;BMP_pressure;BME280_temperature;BME280_humidity;BME280_pressure;Samples;Min_cycle;Max_cycle;Signal;HPM_P1;HPM_P2
2021/03/14 09:11:44;;;;;;;44.05;27.70;;;;;;;8.74;64.53;97707.08;124288;1096;104152;-70
2021/03/14 09:14:44;;;;;;;43.40;25.43;;;;;;;8.85;63.92;97716.73;124222;1105;104262;-72
2021/03/14 09:17:20;;;;;;;47.33;26.97;;;;;;;8.89;64.11;97732.23;124241;1105;104258;-71
2021/03/14 09:19:52;;;;;;;44.23;26.27;;;;;;;8.91;63.99;97732.94;124215;1105;104348;-70
2021/03/14 09:22:32;;;;;;;42.83;26.23;;;;;;;8.92;64.19;97723.19;124155;1105;104165;-69
2021/03/14 09:25:00;;;;;;;43.65;26.35;;;;;;;9.02;64.16;97724.03;124165;1105;104156;-68
2021/03/14 09:27:31;;;;;;;44.03;26.20;;;;;;;9.19;64.09;97717.23;124194;1105;104251;-69
2021/03/14 09:29:59;;;;;;;44.57;24.97;;;;;;;9.35;64.38;97718.53;124215;1105;104181;-69
2021/03/14 09:32:51;;;;;;;39.27;22.63;;;;;;;9.58;64.05;97726.27;124179;1105;104322;-70
2021/03/14 09:35:39;;;;;;;41.87;25.50;;;;;;;9.67;64.10;97718.30;124159;1105;104339;-67
2021/03/14 09:38:15;;;;;;;37.57;23.83;;;;;;;9.94;64.45;97719.41;124194;1105;104239;-68
2021/03/14 09:40:44;;;;;;;41.90;25.93;;;;;;;10.16;64.32;97708.61;124267;1106;104239;-70
2021/03/14 09:43:29;;;;;;;37.13;23.33;;;;;;;10.30;64.18;97713.48;124120;1105;104178;-73
2021/03/14 09:45:59;;;;;;;38.87;24.87;;;;;;;10.29;64.14;97719.78;124260;1105;104219;-71
2021/03/14 09:48:32;;;;;;;38.97;24.07;;;;;;;10.24;64.23;97722.84;123791;1105;104158;-69
2021/03/14 09:51:04;;;;;;;35.50;22.33;;;;;;;10.11;63.86;97723.16;124056;1105;104149;-70
2021/03/14 09:53:37;;;;;;;37.30;22.63;;;;;;;10.02;63.65;97725.83;124126;1105;104670;-71
2021/03/14 09:56:07;;;;;;;36.93;23.20;;;;;;;9.97;63.56;97716.47;123966;1105;104204;-72
2021/03/14 09:58:35;;;;;;;37.13;23.47;;;;;;;10.02;64.09;97731.14;124234;1105;104248;-74
2021/03/14 10:01:09;;;;;;;38.40;24.33;;;;;;;10.09;64.25;97714.48;124128;1105;104159;-72
2021/03/14 10:03:36;;;;;;;37.83;23.90;;;;;;;10.20;63.59;97712.66;124197;1106;104214;-70
2021/03/14 10:06:23;;;;;;;36.55;22.60;;;;;;;10.31;63.70;97711.66;124178;1105;104252;-71
2021/03/14 10:08:54;;;;;;;37.47;22.87;;;;;;;10.37;64.21;97714.59;124048;1105;104278;-73
2021/03/14 10:11:25;;;;;;;35.08;22.30;;;;;;;10.45;63.97;97713.05;124180;1105;104264;-69
2021/03/14 10:13:56;;;;;;;36.27;22.30;;;;;;;10.58;63.90;97713.57;124136;1105;104179;-71
2021/03/14 10:16:26;;;;;;;35.30;22.30;;;;;;;10.69;63.90;97710.74;124277;1105;104214;-71
2021/03/14 10:19:01;;;;;;;34.50;21.50;;;;;;;10.72;63.92;97705.13;124209;1106;104175;-74
2021/03/14 10:21:32;;;;;;;35.27;21.97;;;;;;;10.78;64.07;97700.22;124011;1105;104259;-70
2021/03/14 10:24:27;;;;;;;35.77;23.20;;;;;;;10.85;64.00;97693.30;124054;1105;104380;-72
2021/03/14 10:27:00;;;;;;;39.33;24.00;;;;;;;10.88;63.39;97698.33;124243;1105;104278;-73
2021/03/14 10:29:33;;;;;;;34.90;22.27;;;;;;;10.91;63.66;97697.21;124262;1105;104292;-72
2021/03/14 10:32:01;;;;;;;37.17;22.90;;;;;;;10.92;64.09;97712.19;124344;1106;104255;-75
2021/03/14 10:34:32;;;;;;;37.13;23.53;;;;;;;10.93;63.28;97716.53;124247;1105;104219;-72
2021/03/14 10:37:03;;;;;;;35.60;22.60;;;;;;;10.92;63.31;97717.52;123960;1106;104422;-71
2021/03/14 10:39:30;;;;;;;34.47;21.13;;;;;;;10.91;63.81;97723.81;124301;1105;104165;-69
2021/03/14 10:41:57;;;;;;;33.17;20.57;;;;;;;10.96;63.59;97721.55;124261;1105;104258;-70
2021/03/14 10:44:29;;;;;;;34.03;20.00;;;;;;;10.94;63.00;97711.05;124144;1105;104264;-73
2021/03/14 10:46:56;;;;;;;31.47;18.30;;;;;;;10.92;62.81;97712.19;124289;1105;104267;-71
2021/03/14 10:49:23;;;;;;;31.60;19.40;;;;;;;10.85;63.28;97710.11;124240;1105;104306;-72
2021/03/14 10:51:56;;;;;;;32.35;19.82;;;;;;;10.86;63.25;97711.79;124241;1105;104161;-69
2021/03/14 10:54:34;;;;;;;31.23;18.53;;;;;;;10.87;63.25;97720.59;124369;1106;104229;-71
2021/03/14 10:57:04;;;;;;;32.23;18.27;;;;;;;10.86;63.22;97719.77;124083;1106;104242;-70
2021/03/14 10:59:36;;;;;;;31.77;18.87;;;;;;;10.85;62.92;97720.75;124193;1105;104206;-71
2021/03/14 11:02:13;;;;;;;33.03;19.47;;;;;;;10.87;63.57;97720.59;124304;1105;104765;-71
2021/03/14 11:04:52;;;;;;;31.50;20.60;;;;;;;10.87;63.43;97713.47;124046;1105;104186;-71
2021/03/14 11:07:29;;;;;;;31.57;17.10;;;;;;;10.90;63.42;97714.16;124208;1105;104153;-72
2021/03/14 11:10:08;;;;;;;30.33;16.87;;;;;;;10.87;62.66;97724.11;124214;1105;104303;-71
2021/03/14 11:12:43;;;;;;;28.00;15.90;;;;;;;10.85;62.94;97722.56;124187;1105;104152;-72
2021/03/14 11:15:29;;;;;;;29.20;17.50;;;;;;;10.80;62.82;97724.84;124028;1105;104602;-69
2021/03/14 11:18:04;;;;;;;30.53;17.27;;;;;;;10.76;62.88;97732.27;124200;1105;104207;-72
2021/03/14 11:20:37;;;;;;;28.33;16.77;;;;;;;10.71;62.58;97724.73;124324;1105;104255;-72
2021/03/14 11:23:04;;;;;;;29.00;16.63;;;;;;;10.69;62.45;97732.02;124250;1105;104223;-70
2021/03/14 11:25:31;;;;;;;31.87;18.83;;;;;;;10.72;62.76;97737.05;124047;1105;104274;-71
2021/03/14 11:28:03;;;;;;;34.13;20.20;;;;;;;10.78;62.53;97734.80;124242;1105;104162;-71
2021/03/14 11:30:30;;;;;;;33.70;19.37;;;;;;;10.86;62.56;97732.22;124239;1105;104265;-72
2021/03/14 11:32:57;;;;;;;31.73;18.00;;;;;;;10.87;62.39;97732.09;123953;1106;104261;-72
2021/03/14 11:35:30;;;;;;;30.70;18.37;;;;;;;10.90;62.26;97735.44;124290;1105;104245;-72
2021/03/14 11:37:57;;;;;;;31.97;18.67;;;;;;;10.90;62.52;97733.60;124257;1105;104207;-73
2021/03/14 11:40:24;;;;;;;29.50;17.37;;;;;;;10.93;62.64;97741.30;124209;1105;104211;-70
2021/03/14 11:42:51;;;;;;;29.93;15.63;;;;;;;10.94;63.12;97736.83;124081;1104;104162;-68
2021/03/14 11:45:18;;;;;;;28.23;14.30;;;;;;;10.99;62.34;97748.69;124175;1105;104185;-69
2021/03/14 11:47:45;;;;;;;24.93;12.10;;;;;;;11.10;62.76;97746.83;124216;1105;104219;-73
2021/03/14 11:50:13;;;;;;;21.67;10.33;;;;;;;11.07;62.35;97733.82;124266;1105;104185;-72
2021/03/14 11:52:42;;;;;;;17.97;5.87;;;;;;;10.99;61.60;97747.87;124287;1105;104258;-73
2021/03/14 11:55:13;;;;;;;11.30;4.20;;;;;;;10.86;61.65;97751.69;124089;1105;104321;-72
2021/03/14 11:57:40;;;;;;;9.07;3.20;;;;;;;10.75;61.21;97751.04;124072;1105;104290;-72
2021/03/14 12:00:09;;;;;;;10.77;3.00;;;;;;;10.65;61.60;97738.61;124051;1105;104640;-71
2021/03/14 12:02:37;;;;;;;10.50;3.50;;;;;;;10.56;61.57;97726.17;123962;1109;104322;-70
2021/03/14 12:05:06;;;;;;;9.17;2.93;;;;;;;10.47;61.16;97740.32;124298;1105;104194;-72
2021/03/14 12:07:33;;;;;;;7.40;2.93;;;;;;;10.48;61.18;97748.17;124219;1105;104248;-69
2021/03/14 12:10:07;;;;;;;11.60;3.73;;;;;;;10.51;60.88;97745.23;124283;1105;104191;-72
2021/03/14 12:12:33;;;;;;;10.57;3.40;;;;;;;10.51;60.63;97731.08;123973;1105;104211;-73
2021/03/14 12:15:02;;;;;;;9.40;3.20;;;;;;;10.51;61.20;97741.72;124255;1106;104274;-73
2021/03/14 12:17:31;;;;;;;10.07;3.30;;;;;;;10.46;60.47;97747.47;124205;1105;104258;-72
2021/03/14 12:19:59;;;;;;;9.77;3.37;;;;;;;10.46;60.50;97733.33;124030;1105;104146;-73
2021/03/14 12:22:28;;;;;;;14.00;4.30;;;;;;;10.41;60.15;97737.25;124100;1105;104630;-73
2021/03/14 12:24:55;;;;;;;12.77;3.80;;;;;;;10.38;60.06;97728.70;124080;1105;104715;-73
2021/03/14 12:27:22;;;;;;;8.60;2.80;;;;;;;10.39;60.56;97728.58;124117;1105;104182;-72
2021/03/14 12:29:50;;;;;;;12.67;3.73;;;;;;;10.37;60.52;97727.88;124131;1105;104152;-72
2021/03/14 12:32:17;;;;;;;12.67;3.77;;;;;;;10.39;60.31;97725.92;124073;1105;104156;-71
2021/03/14 12:34:44;;;;;;;9.50;3.30;;;;;;;10.36;59.89;97709.41;124109;1105;104165;-71
2021/03/14 12:37:11;;;;;;;7.95;2.90;;;;;;;10.32;59.57;97726.62;124145;1105;104223;-72
2021/03/14 12:39:37;;;;;;;8.80;2.77;;;;;;;10.31;60.13;97719.63;124180;1105;104185;-72
2021/03/14 12:42:05;;;;;;;11.20;3.20;;;;;;;10.32;59.96;97724.81;124193;1105;104310;-71
2021/03/14 12:44:33;;;;;;;9.03;3.27;;;;;;;10.36;59.50;97723.55;124090;1106;104179;-70
2021/03/14 12:47:00;;;;;;;7.07;2.93;;;;;;;10.38;59.38;97726.05;123871;1105;104309;-74
2021/03/14 12:49:28;;;;;;;9.93;3.60;;;;;;;10.34;59.75;97722.85;123743;1105;104152;-72
2021/03/14 12:51:55;;;;;;;9.80;3.17;;;;;;;10.35;59.73;97713.90;124080;1105;104252;-73
2021/03/14 12:54:21;;;;;;;10.27;3.10;;;;;;;10.31;59.34;97719.63;123942;1105;104252;-72
2021/03/14 12:56:48;;;;;;;14.73;3.87;;;;;;;10.26;59.36;97714.75;124089;1105;104227;-74
2021/03/14 12:59:15;;;;;;;9.30;3.25;;;;;;;10.25;58.83;97716.55;124208;1105;104239;-74
2021/03/14 13:01:42;;;;;;;8.03;3.00;;;;;;;10.25;58.79;97715.73;123980;1105;104271;-75
2021/03/14 13:04:10;;;;;;;7.63;3.10;;;;;;;10.23;58.34;97717.69;124070;1106;104194;-72
2021/03/14 13:06:37;;;;;;;12.40;3.80;;;;;;;10.24;58.64;97717.53;124186;1105;104261;-72
2021/03/14 13:09:04;;;;;;;16.40;4.07;;;;;;;10.28;58.72;97723.42;124256;1105;104338;-72
2021/03/14 13:11:31;;;;;;;9.30;3.17;;;;;;;10.30;58.87;97720.61;124240;1105;104182;-70
2021/03/14 13:13:58;;;;;;;11.80;3.90;;;;;;;10.31;58.68;97717.82;124190;1105;104178;-73
2021/03/14 13:16:25;;;;;;;12.53;3.50;;;;;;;10.30;58.22;97723.27;124235;1105;104153;-71
2021/03/14 13:18:53;;;;;;;14.60;3.93;;;;;;;10.26;58.66;97714.75;124332;1105;104233;-72
2021/03/14 13:21:22;;;;;;;15.40;4.20;;;;;;;10.22;57.84;97713.36;124218;1106;104181;-72
2021/03/14 13:23:49;;;;;;;14.30;4.27;;;;;;;10.23;58.13;97710.55;124267;1105;104187;-71
2021/03/14 13:26:16;;;;;;;12.95;3.60;;;;;;;10.21;57.53;97709.84;124235;1105;104246;-72
2021/03/14 13:28:43;;;;;;;9.97;3.93;;;;;;;10.23;57.50;97712.38;124336;1105;104235;-71
2021/03/14 13:31:11;;;;;;;14.25;4.35;;;;;;;10.26;57.66;97714.75;124265;1105;104252;-72
2021/03/14 13:33:39;;;;;;;10.90;3.80;;;;;;;10.28;57.81;97705.64;124282;1105;104162;-71
2021/03/14 13:36:06;;;;;;;11.48;4.10;;;;;;;10.32;57.94;97716.84;124257;1105;104159;-73
2021/03/14 13:38:34;;;;;;;13.87;4.13;;;;;;;10.36;57.79;97726.20;124273;1105;104186;-75
2021/03/14 13:41:01;;;;;;;15.30;4.43;;;;;;;10.41;57.48;97723.14;124260;1105;104181;-75
2021/03/14 13:43:28;;;;;;;14.17;4.03;;;;;;;10.46;57.83;97720.89;124270;1105;104245;-77
2021/03/14 13:45:55;;;;;;;9.27;3.47;;;;;;;10.54;57.57;97718.36;124236;1106;104686;-72
2021/03/14 13:48:22;;;;;;;11.80;3.60;;;;;;;10.63;57.79;97731.73;124388;1105;104350;-73
2021/03/14 13:50:49;;;;;;;14.83;3.83;;;;;;;10.64;57.27;97736.93;124245;1105;104213;-71
2021/03/14 13:53:16;;;;;;;13.80;3.87;;;;;;;10.64;57.12;97744.91;124257;1105;104259;-70
2021/03/14 13:55:43;;;;;;;10.33;3.20;;;;;;;10.55;57.24;97748.42;124331;1105;104265;-70
2021/03/14 13:58:20;;;;;;;13.50;4.53;;;;;;;10.48;56.79;97750.83;124160;1105;104239;-71
2021/03/14 14:00:48;;;;;;;11.17;3.90;;;;;;;10.44;56.79;97754.75;124304;1105;104294;-71
2021/03/14 14:03:16;;;;;;;13.57;4.30;;;;;;;10.36;56.75;97758.11;124235;1105;104162;-72
2021/03/14 14:05:44;;;;;;;12.10;4.07;;;;;;;10.33;56.85;97765.50;124291;1105;104232;-71
2021/03/14 14:08:10;;;;;;;16.20;5.30;;;;;;;10.27;56.36;97765.09;124294;1105;104248;-69
2021/03/14 14:10:37;;;;;;;9.73;3.83;;;;;;;10.22;56.58;97771.82;124272;1105;104162;-71
2021/03/14 14:13:07;;;;;;;11.43;3.60;;;;;;;10.13;56.44;97771.68;124368;1105;104389;-69
2021/03/14 14:15:34;;;;;;;14.33;3.83;;;;;;;10.06;56.20;97778.53;124223;1105;104640;-70
2021/03/14 14:18:05;;;;;;;15.90;5.03;;;;;;;10.04;56.54;97784.98;124285;1105;103330;-70
2021/03/14 14:20:33;;;;;;;15.53;5.20;;;;;;;9.99;56.30;97782.72;124251;1106;104293;-71
2021/03/14 14:23:01;;;;;;;15.03;4.93;;;;;;;9.94;56.16;97775.18;124327;1105;104240;-71
2021/03/14 14:25:28;;;;;;;16.67;5.00;;;;;;;9.94;56.13;97783.15;124269;1105;104162;-70
2021/03/14 14:28:00;;;;;;;15.43;5.03;;;;;;;9.92;56.08;97781.63;124240;1105;102795;-71
2021/03/14 14:30:29;;;;;;;12.80;4.43;;;;;;;9.90;55.95;97792.38;124159;1105;104249;-70
2021/03/14 14:32:58;;;;;;;12.13;4.13;;;;;;;9.88;56.20;97799.64;124043;1105;104342;-69
2021/03/14 14:35:26;;;;;;;14.00;4.67;;;;;;;9.83;55.84;97797.41;124162;1105;104932;-71
2021/03/14 14:37:54;;;;;;;14.10;4.80;;;;;;;9.81;55.98;97802.02;124131;1105;104399;-71
2021/03/14 14:40:21;;;;;;;18.70;6.17;;;;;;;9.81;56.07;97812.64;123916;1105;104249;-70
2021/03/14 14:42:49;;;;;;;16.52;4.75;;;;;;;9.78;55.67;97810.26;124144;1105;104186;-70
2021/03/14 14:45:18;;;;;;;17.17;4.90;;;;;;;9.75;55.88;97815.02;124192;1105;104264;-72
2021/03/14 14:47:46;;;;;;;14.40;4.57;;;;;;;9.67;55.49;97811.23;124160;1105;104249;-71
2021/03/14 14:50:14;;;;;;;11.40;3.93;;;;;;;9.65;55.79;97810.52;124013;1105;104291;-71
2021/03/14 14:52:43;;;;;;;13.20;4.93;;;;;;;9.61;55.54;97817.08;123769;1105;104261;-70
2021/03/14 14:55:11;;;;;;;15.80;4.53;;;;;;;9.58;55.32;97822.66;124050;1105;104175;-70
2021/03/14 14:57:39;;;;;;;15.00;5.07;;;;;;;9.56;55.27;97823.78;124026;1105;104172;-70
2021/03/14 15:00:13;;;;;;;16.07;4.80;;;;;;;9.56;55.23;97815.81;123903;1105;104188;-71
2021/03/14 15:02:41;;;;;;;15.87;5.70;;;;;;;9.56;55.25;97815.81;124155;1105;104434;-71
2021/03/14 15:05:09;;;;;;;20.17;5.67;;;;;;;9.55;55.22;97822.92;124055;1105;104147;-71
2021/03/14 15:07:36;;;;;;;15.43;5.03;;;;;;;9.56;55.08;97821.13;124122;1106;104162;-68
2021/03/14 15:10:06;;;;;;;14.90;5.30;;;;;;;9.53;54.96;97811.60;123650;1106;104245;-70
2021/03/14 15:12:33;;;;;;;14.87;4.90;;;;;;;9.52;55.06;97816.09;123961;1105;104168;-70
2021/03/14 15:15:00;;;;;;;15.90;5.50;;;;;;;9.46;55.00;97815.77;124038;1105;104233;-71
2021/03/14 15:17:27;;;;;;;17.03;6.40;;;;;;;9.43;55.06;97818.69;123903;1105;104644;-69
2021/03/14 15:19:54;;;;;;;21.83;6.20;;;;;;;9.43;54.98;97819.55;124092;1105;104201;-70
2021/03/14 15:22:21;;;;;;;17.37;5.53;;;;;;;9.42;55.01;97817.02;124034;1105;104255;-71
2021/03/14 15:24:48;;;;;;;19.20;6.13;;;;;;;9.38;54.91;97816.45;124025;1105;104214;-70
2021/03/14 15:27:15;;;;;;;16.50;5.85;;;;;;;9.34;55.12;97825.66;123943;1105;104264;-70
2021/03/14 15:29:42;;;;;;;17.47;5.43;;;;;;;9.31;55.06;97821.47;123990;1105;104620;-72
2021/03/14 15:32:09;;;;;;;15.35;5.33;;;;;;;9.28;54.84;97823.53;124027;1105;104241;-71
2021/03/14 15:34:36;;;;;;;15.20;5.47;;;;;;;9.26;54.77;97822.83;123797;1105;104159;-71
2021/03/14 15:37:03;;;;;;;18.30;5.65;;;;;;;9.21;54.62;97824.06;124011;1105;104277;-68
2021/03/14 15:39:30;;;;;;;16.43;5.17;;;;;;;9.16;54.77;97820.14;124024;1105;104179;-70
2021/03/14 15:41:57;;;;;;;15.25;5.17;;;;;;;9.09;54.70;97825.98;123989;1105;104198;-71
2021/03/14 15:44:24;;;;;;;23.10;9.40;;;;;;;9.06;54.58;97825.42;123876;1105;105067;-72
2021/03/14 15:46:51;;;;;;;19.02;6.17;;;;;;;9.03;54.52;97830.98;123833;1105;104297;-72
2021/03/14 15:49:18;;;;;;;19.87;7.03;;;;;;;8.97;54.60;97832.33;123819;1105;104255;-73
2021/03/14 15:51:45;;;;;;;19.33;6.83;;;;;;;8.93;54.48;97831.77;123990;1105;104302;-72
2021/03/14 15:54:12;;;;;;;19.85;6.90;;;;;;;8.91;54.55;97836.36;124118;1105;104868;-73
2021/03/14 15:56:41;;;;;;;20.87;6.60;;;;;;;8.89;54.53;97833.00;124045;1103;104159;-73
2021/03/14 15:59:08;;;;;;;18.80;6.80;;;;;;;8.85;54.79;97836.88;124092;1106;104307;-74
2021/03/14 16:01:35;;;;;;;19.70;6.80;;;;;;;8.81;54.61;97842.59;124026;1105;104570;-73
2021/03/14 16:04:04;;;;;;;16.30;5.93;;;;;;;8.77;54.45;97839.34;124081;1105;104281;-73
2021/03/14 16:06:31;;;;;;;19.63;7.37;;;;;;;8.74;54.56;97843.11;123912;1105;102408;-74
2021/03/14 16:08:58;;;;;;;19.03;7.17;;;;;;;8.73;54.49;97840.60;124311;1104;104290;-74
2021/03/14 16:11:24;;;;;;;21.50;7.15;;;;;;;8.69;54.11;97837.35;124212;1105;104223;-73
2021/03/14 16:13:53;;;;;;;17.20;6.23;;;;;;;8.70;54.45;97848.81;124184;1105;104284;-73
2021/03/14 16:16:20;;;;;;;17.30;6.40;;;;;;;8.66;54.60;97845.56;124248;1105;104265;-73
2021/03/14 16:18:47;;;;;;;20.65;7.53;;;;;;;8.65;54.29;97849.18;124252;1105;104280;-73
2021/03/14 16:21:20;;;;;;;21.90;7.47;;;;;;;8.58;54.69;97846.22;124253;1105;104159;-74
2021/03/14 16:23:47;;;;;;;22.93;9.30;;;;;;;8.57;54.46;97857.78;124281;1105;104226;-73
2021/03/14 16:26:14;;;;;;;24.20;9.53;;;;;;;8.54;54.61;97851.92;124258;1106;104338;-74
2021/03/14 16:28:43;;;;;;;27.07;10.70;;;;;;;8.54;54.08;97865.17;124253;1105;104322;-74
2021/03/14 16:31:13;;;;;;;27.10;11.13;;;;;;;8.48;54.45;97858.52;124197;1105;104240;-74
2021/03/14 16:33:42;;;;;;;24.77;10.07;;;;;;;8.47;54.46;97864.79;124309;1105;104163;-75
2021/03/14 16:36:10;;;;;;;23.40;9.80;;;;;;;8.45;54.17;97864.08;124251;1105;104293;-73
2021/03/14 16:38:37;;;;;;;24.77;10.07;;;;;;;8.42;54.32;97862.53;124274;1105;104191;-74
2021/03/14 16:41:07;;;;;;;24.80;10.00;;;;;;;8.37;54.34;97867.37;124285;1105;104630;-73
2021/03/14 16:43:35;;;;;;;31.83;11.23;;;;;;;8.35;54.11;97869.30;125405;1105;104188;-73
2021/03/14 16:46:02;;;;;;;26.77;11.20;;;;;;;8.32;54.01;97872.20;124247;1105;104274;-75
2021/03/14 16:48:30;;;;;;;24.33;8.97;;;;;;;8.29;53.84;97875.97;124343;1105;104287;-73
2021/03/14 16:50:57;;;;;;;28.07;9.83;;;;;;;8.23;53.99;97884.41;124239;1105;104220;-75
2021/03/14 16:53:24;;;;;;;26.20;10.43;;;;;;;8.19;53.98;97886.45;124215;1106;104191;-73
2021/03/14 16:55:52;;;;;;;24.10;9.23;;;;;;;8.20;54.09;97889.96;124224;1105;104194;-73
2021/03/14 16:58:21;;;;;;;23.95;10.20;;;;;;;8.22;54.10;97892.47;124185;1105;104169;-72
2021/03/14 17:00:48;;;;;;;20.30;8.73;;;;;;;8.20;54.71;97904.03;124251;1105;104716;-73
2021/03/14 17:03:16;;;;;;;22.73;8.85;;;;;;;8.20;54.20;97906.68;124188;1105;104226;-71
2021/03/14 17:05:43;;;;;;;21.10;9.07;;;;;;;8.19;54.62;97912.12;124249;1105;104707;-73
2021/03/14 17:08:10;;;;;;;20.37;8.30;;;;;;;8.14;54.33;97909.86;124261;1105;104243;-73
2021/03/14 17:10:37;;;;;;;23.47;9.23;;;;;;;8.10;53.88;97911.06;124205;1106;104169;-77
2021/03/14 17:13:04;;;;;;;22.17;8.43;;;;;;;8.09;54.25;97914.68;124250;1105;104657;-73
2021/03/14 17:15:31;;;;;;;23.00;9.13;;;;;;;8.10;54.65;97926.95;124302;1106;104195;-72
2021/03/14 17:17:59;;;;;;;24.60;9.30;;;;;;;8.09;54.49;97924.42;124197;1105;104150;-71
2021/03/14 17:20:26;;;;;;;21.73;8.37;;;;;;;8.08;54.20;97925.38;124274;1105;104230;-71
2021/03/14 17:23:04;;;;;;;22.30;9.13;;;;;;;8.07;54.61;97928.99;124196;1105;104190;-72
2021/03/14 17:25:32;;;;;;;24.37;9.33;;;;;;;8.07;54.25;97929.85;124233;1105;104159;-72
2021/03/14 17:27:59;;;;;;;22.93;8.80;;;;;;;8.05;54.58;97932.61;124064;1105;104188;-71
2021/03/14 17:30:27;;;;;;;23.17;8.80;;;;;;;8.04;53.90;97940.69;124269;1105;104217;-73
2021/03/14 17:32:54;;;;;;;24.57;8.50;;;;;;;8.01;53.98;97941.77;124307;1105;104268;-76
2021/03/14 17:35:22;;;;;;;24.83;9.03;;;;;;;7.98;54.61;97938.53;124267;1105;104415;-74
2021/03/14 17:37:49;;;;;;;22.57;9.10;;;;;;;7.93;54.32;97935.41;124140;1105;104222;-74
2021/03/14 17:40:17;;;;;;;24.80;9.40;;;;;;;7.89;53.93;97951.53;124204;1105;104184;-72
2021/03/14 17:42:45;;;;;;;25.97;9.83;;;;;;;7.86;54.48;97945.66;124175;1105;104717;-72
2021/03/14 17:45:13;;;;;;;25.00;10.20;;;;;;;7.82;54.56;97942.39;124064;1105;104165;-72
2021/03/14 17:47:40;;;;;;;26.65;10.90;;;;;;;7.77;54.19;97951.67;124112;1104;104718;-74
2021/03/14 17:50:09;;;;;;;24.60;10.13;;;;;;;7.73;54.21;97945.80;124274;1105;104158;-73
2021/03/14 17:52:36;;;;;;;21.10;9.20;;;;;;;7.69;54.53;97949.64;124289;1105;104610;-72
2021/03/14 17:55:05;;;;;;;22.93;8.67;;;;;;;7.60;54.50;97941.45;124238;1105;104181;-71
2021/03/14 17:57:32;;;;;;;23.73;9.83;;;;;;;7.56;54.50;97945.30;124168;1105;104262;-71
2021/03/14 17:59:59;;;;;;;26.00;9.80;;;;;;;7.53;53.85;97939.42;124213;1105;104242;-70
2021/03/14 18:02:26;;;;;;;22.00;9.17;;;;;;;7.52;53.96;97943.03;124138;1105;104188;-74
2021/03/14 18:04:54;;;;;;;24.27;9.37;;;;;;;7.50;54.52;97944.95;124237;1105;104159;-73
2021/03/14 18:07:21;;;;;;;24.40;10.57;;;;;;;7.49;53.90;97943.27;124096;1106;104335;-72
2021/03/14 18:09:49;;;;;;;29.43;10.50;;;;;;;7.48;53.83;97952.99;124265;1105;104606;-74
2021/03/14 18:12:16;;;;;;;24.93;10.47;;;;;;;7.47;53.86;97963.71;124029;1105;104284;-73
2021/03/14 18:14:43;;;;;;;25.97;9.80;;;;;;;7.44;53.71;97955.05;123957;1105;104725;-73
2021/03/14 18:17:10;;;;;;;24.90;10.43;;;;;;;7.43;54.15;97956.01;124169;1105;104242;-73
2021/03/14 18:19:37;;;;;;;26.80;11.00;;;;;;;7.42;54.53;97967.55;124275;1105;104265;-73
2021/03/14 18:22:05;;;;;;;25.60;10.53;;;;;;;7.39;54.18;97972.22;124267;1105;104361;-73
2021/03/14 18:24:33;;;;;;;33.10;12.23;;;;;;;7.37;53.89;97976.78;124287;1105;104220;-73
2021/03/14 18:27:01;;;;;;;34.77;14.97;;;;;;;7.29;53.86;97983.53;124204;1105;104251;-73
2021/03/14 18:29:28;;;;;;;35.45;16.55;;;;;;;7.26;54.37;97982.91;124240;1105;104243;-74
2021/03/14 18:31:54;;;;;;;36.83;17.40;;;;;;;7.19;54.47;97990.48;124227;1105;104235;-74
2021/03/14 18:34:22;;;;;;;45.17;22.07;;;;;;;7.13;54.29;97998.88;124271;1105;104205;-74
2021/03/14 18:36:49;;;;;;;44.88;21.07;;;;;;;7.06;54.04;97997.64;124342;1105;104259;-74
2021/03/14 18:39:16;;;;;;;42.80;19.90;;;;;;;6.99;54.26;97999.92;124057;1105;104323;-73
2021/03/14 18:41:44;;;;;;;41.37;17.97;;;;;;;6.93;54.12;98001.20;124199;1105;104235;-72
2021/03/14 18:44:11;;;;;;;33.93;15.43;;;;;;;6.90;54.32;98005.89;124262;1105;104264;-73
2021/03/14 18:46:38;;;;;;;35.87;15.43;;;;;;;6.88;54.54;98003.37;124250;1106;104255;-74
2021/03/14 18:49:06;;;;;;;33.40;14.37;;;;;;;6.87;54.28;98014.91;124218;1105;104230;-74
2021/03/14 18:51:34;;;;;;;35.73;15.03;;;;;;;6.82;54.35;98007.30;124225;1105;104268;-73
2021/03/14 18:54:02;;;;;;;31.97;13.93;;;;;;;6.79;54.05;98001.41;124232;1106;104310;-73
2021/03/14 18:56:29;;;;;;;30.50;13.23;;;;;;;6.77;54.38;97998.87;124271;1105;104264;-73
2021/03/14 18:59:01;;;;;;;32.33;14.27;;;;;;;6.75;54.16;98007.88;124253;1105;104328;-73
2021/03/14 19:01:28;;;;;;;34.30;14.40;;;;;;;6.73;54.19;98009.79;124015;1105;104233;-73
2021/03/14 19:03:56;;;;;;;35.60;15.27;;;;;;;6.69;54.00;98017.11;124284;1105;104227;-74
2021/03/14 19:06:23;;;;;;;35.63;15.67;;;;;;;6.69;54.68;98017.11;124244;1105;104660;-74
2021/03/14 19:08:50;;;;;;;38.03;15.67;;;;;;;6.67;54.15;98026.95;124295;1105;104157;-74
2021/03/14 19:11:17;;;;;;;35.35;15.00;;;;;;;6.66;54.68;98025.27;124017;1105;104348;-74
2021/03/14 19:13:44;;;;;;;34.88;15.28;;;;;;;6.64;54.40;98028.00;124249;1105;104318;-72
2021/03/14 19:16:11;;;;;;;34.53;15.50;;;;;;;6.61;54.60;98032.69;124266;1106;104156;-74
2021/03/14 19:18:39;;;;;;;32.33;14.50;;;;;;;6.57;54.63;98039.97;123969;1105;104163;-73
2021/03/14 19:21:06;;;;;;;31.20;15.00;;;;;;;6.58;54.48;98043.47;124312;1105;104185;-73
2021/03/14 19:23:34;;;;;;;33.37;15.63;;;;;;;6.54;54.25;98048.98;124297;1105;104270;-72
2021/03/14 19:26:01;;;;;;;36.70;17.17;;;;;;;6.51;54.36;98051.84;124099;1105;104197;-73
2021/03/14 19:28:28;;;;;;;34.63;15.57;;;;;;;6.50;54.39;98047.51;124102;1105;104181;-73
2021/03/14 19:30:55;;;;;;;36.27;16.67;;;;;;;6.49;54.44;98056.39;124184;1105;104318;-73
2021/03/14 19:33:22;;;;;;;34.97;15.93;;;;;;;6.46;54.47;98059.25;124172;1105;104287;-72
2021/03/14 19:35:49;;;;;;;35.05;16.80;;;;;;;6.42;54.65;98062.23;124026;1105;104349;-74
2021/03/14 19:38:17;;;;;;;33.53;15.87;;;;;;;6.40;54.75;98073.75;124112;1105;104293;-75
2021/03/14 19:40:44;;;;;;;46.10;22.57;;;;;;;6.35;54.36;98073.23;124252;1105;104221;-74
2021/03/14 19:43:11;;;;;;;38.35;17.20;;;;;;;6.34;54.37;98076.83;124330;1105;104185;-74
2021/03/14 19:45:39;;;;;;;38.43;17.60;;;;;;;6.34;54.27;98075.97;124214;1105;104188;-75
2021/03/14 19:48:06;;;;;;;37.60;16.53;;;;;;;6.34;54.87;98083.89;124067;1105;104216;-74
2021/03/14 19:50:34;;;;;;;34.30;16.27;;;;;;;6.29;54.25;98080.76;123976;1105;104216;-72
2021/03/14 19:53:02;;;;;;;38.63;17.00;;;;;;;6.27;54.65;98083.49;124100;1105;104188;-73
2021/03/14 19:55:29;;;;;;;36.13;16.83;;;;;;;6.22;54.73;98094.39;124025;1105;104342;-74
2021/03/14 19:57:56;;;;;;;37.07;16.60;;;;;;;6.20;55.00;98098.94;124016;1105;104348;-77
2021/03/14 20:00:25;;;;;;;38.83;18.17;;;;;;;6.14;54.92;98109.92;123866;1106;104726;-72
2021/03/14 20:02:54;;;;;;;40.17;17.80;;;;;;;6.07;54.54;98106.88;123827;1105;104214;-72
2021/03/14 20:05:30;;;;;;;37.40;16.20;;;;;;;6.03;54.55;98109.82;124028;1105;104265;-72
2021/03/14 20:07:59;;;;;;;37.30;16.07;;;;;;;5.93;54.58;98109.59;123754;1105;104188;-71
2021/03/14 20:10:27;;;;;;;32.13;13.67;;;;;;;5.85;54.52;98110.13;124040;1105;104253;-69
2021/03/14 20:12:54;;;;;;;32.60;13.20;;;;;;;5.78;54.29;98109.69;123757;1105;104328;-71
2021/03/14 20:15:21;;;;;;;32.10;13.43;;;;;;;5.72;54.60;98109.27;124069;1105;104265;-71
2021/03/14 20:17:49;;;;;;;28.27;11.57;;;;;;;5.69;54.57;98117.39;123978;1105;104261;-71
2021/03/14 20:20:16;;;;;;;27.87;11.60;;;;;;;5.68;54.83;98115.70;124066;1105;104239;-71
2021/03/14 20:22:44;;;;;;;25.97;10.97;;;;;;;5.63;54.81;98121.30;124038;1105;104188;-68
2021/03/14 20:25:12;;;;;;;25.20;9.80;;;;;;;5.58;54.41;98118.95;124225;1105;104332;-70
2021/03/14 20:27:42;;;;;;;26.07;9.67;;;;;;;5.51;54.66;98125.58;124091;1105;104201;-71
2021/03/14 20:30:11;;;;;;;25.43;10.20;;;;;;;5.46;54.84;98130.34;124284;1105;104168;-73